createdAt,value
2023-04-11T00:00:37.002Z,100.00
2023-04-11T00:03:40.342Z,100.00
2023-04-11T00:06:43.388Z,100.00
2023-04-11T00:09:46.369Z,100.00
2023-04-11T00:12:49.150Z,100.00
2023-04-11T00:15:55.646Z,100.00
2023-04-11T00:18:58.444Z,100.00
2023-04-11T00:22:02.919Z,100.00
2023-04-11T00:25:06.957Z,100.00
2023-04-11T00:28:10.753Z,100.00
2023-04-11T00:31:13.663Z,100.00
2023-04-11T00:34:17.428Z,100.00
2023-04-11T00:37:23.107Z,100.00
2023-04-11T00:40:26.493Z,100.00
2023-04-11T00:43:29.182Z,100.00
2023-04-11T00:46:33.659Z,100.00
2023-04-11T00:49:37.050Z,100.00
2023-04-11T00:52:40.527Z,100.00
2023-04-11T00:55:43.164Z,100.00
2023-04-11T00:58:46.242Z,100.00
2023-04-11T01:01:50.092Z,100.00
2023-04-11T01:04:53.442Z,100.00
2023-04-11T01:07:57.029Z,100.00
2023-04-11T01:11:02.092Z,100.00
2023-04-11T01:14:05.415Z,100.00
2023-04-11T01:17:12.676Z,100.00
2023-04-11T01:20:15.846Z,100.00
2023-04-11T01:23:23.483Z,100.00
2023-04-11T01:26:26.396Z,100.00
2023-04-11T01:29:30.332Z,100.00
2023-04-11T01:32:33.104Z,100.00
2023-04-11T01:35:36.072Z,100.00
2023-04-11T01:38:38.932Z,100.00
2023-04-11T01:41:43.236Z,100.00
2023-04-11T01:44:46.268Z,100.00
2023-04-11T01:47:51.564Z,100.00
2023-04-11T01:50:56.355Z,100.00
2023-04-11T01:53:59.214Z,100.00
2023-04-11T01:57:01.814Z,100.00
2023-04-11T02:00:11.805Z,100.00
2023-04-11T02:03:21.682Z,100.00
2023-04-11T02:06:24.799Z,100.00
2023-04-11T02:09:27.341Z,100.00
2023-04-11T02:12:30.563Z,100.00
2023-04-11T02:15:33.183Z,100.00
2023-04-11T02:18:37.321Z,100.00
2023-04-11T02:21:40.269Z,100.00
2023-04-11T02:24:43.101Z,100.00
2023-04-11T02:27:46.029Z,100.00
2023-04-11T02:30:49.887Z,100.00
2023-04-11T02:33:54.305Z,100.00
2023-04-11T02:36:59.699Z,100.00
2023-04-11T02:40:04.099Z,100.00
2023-04-11T02:43:07.132Z,100.00
2023-04-11T02:46:13.045Z,100.00
2023-04-11T02:49:16.991Z,100.00
2023-04-11T02:52:21.957Z,100.00
2023-04-11T02:55:24.713Z,100.00
2023-04-11T02:58:28.890Z,100.00
2023-04-11T03:01:33.071Z,100.00
2023-04-11T03:04:36.137Z,100.00
2023-04-11T03:07:40.615Z,100.00
2023-04-11T03:10:45.013Z,100.00
2023-04-11T03:13:48.100Z,100.00
2023-04-11T03:16:51.126Z,100.00
2023-04-11T03:19:54.273Z,100.00
2023-04-11T03:22:57.632Z,100.00
2023-04-11T03:26:00.696Z,100.00
2023-04-11T03:29:04.513Z,100.00
2023-04-11T03:32:07.960Z,100.00
2023-04-11T03:35:11.217Z,100.00
2023-04-11T03:38:14.970Z,100.00
2023-04-11T03:41:19.509Z,100.00
2023-04-11T03:44:22.723Z,100.00
2023-04-11T03:47:26.535Z,100.00
2023-04-11T03:50:30.600Z,100.00
2023-04-11T03:53:33.940Z,100.00
2023-04-11T03:56:38.468Z,100.00
2023-04-11T03:59:41.900Z,100.00
2023-04-11T04:02:45.399Z,100.00
2023-04-11T04:05:49.171Z,100.00
2023-04-11T04:08:52.538Z,100.00
2023-04-11T04:11:57.561Z,100.00
2023-04-11T04:15:02.309Z,100.00
2023-04-11T04:18:05.738Z,100.00
2023-04-11T04:21:12.456Z,100.00
2023-04-11T04:24:16.506Z,100.00
2023-04-11T04:27:21.100Z,100.00
2023-04-11T04:30:28.759Z,100.00
2023-04-11T04:33:33.271Z,100.00
2023-04-11T04:36:46.874Z,100.00
2023-04-11T04:39:54.423Z,100.00
2023-04-11T04:42:59.452Z,100.00
2023-04-11T04:46:05.409Z,100.00
2023-04-11T04:49:09.408Z,100.00
2023-04-11T04:52:15.701Z,100.00
2023-04-11T04:55:18.805Z,100.00
2023-04-11T04:58:24.389Z,100.00
2023-04-11T05:01:27.588Z,100.00
2023-04-11T05:04:34.081Z,100.00
2023-04-11T05:07:38.368Z,100.00
2023-04-11T05:10:41.576Z,100.00
2023-04-11T05:13:44.851Z,100.00
2023-04-11T05:16:47.765Z,100.00
2023-04-11T05:19:50.900Z,100.00
2023-04-11T05:22:54.029Z,100.00
2023-04-11T05:25:57.249Z,100.00
2023-04-11T05:29:01.046Z,100.00
2023-04-11T05:32:04.551Z,100.00
2023-04-11T05:35:07.862Z,100.00
2023-04-11T05:38:11.662Z,100.00
2023-04-11T05:41:15.135Z,100.00
2023-04-11T05:44:18.176Z,100.00
2023-04-11T05:47:20.834Z,100.00
2023-04-11T05:50:24.580Z,100.00
2023-04-11T05:53:27.354Z,100.00
2023-04-11T05:56:30.210Z,100.00
2023-04-11T05:59:33.277Z,100.00
2023-04-11T06:02:36.435Z,100.00
2023-04-11T06:05:40.524Z,100.00
2023-04-11T06:08:43.324Z,100.00
2023-04-11T06:11:46.684Z,100.00
2023-04-11T06:14:49.306Z,100.00
2023-04-11T06:17:52.609Z,100.00
2023-04-11T06:20:55.380Z,100.00
2023-04-11T06:24:06.080Z,100.00
2023-04-11T06:27:11.551Z,100.00
2023-04-11T06:30:15.630Z,100.00
2023-04-11T06:33:18.738Z,100.00
2023-04-11T06:36:21.771Z,100.00
2023-04-11T06:39:24.516Z,94.10
2023-04-11T06:42:27.764Z,89.98
2023-04-11T06:45:30.412Z,93.17
2023-04-11T06:48:33.380Z,92.13
2023-04-11T06:51:36.650Z,87.62
2023-04-11T06:54:40.722Z,85.71
2023-04-11T06:57:43.891Z,79.56
2023-04-11T07:00:46.861Z,77.72
2023-04-11T07:03:50.262Z,70.57
2023-04-11T07:06:53.327Z,67.76
2023-04-11T07:09:56.023Z,65.75
2023-04-11T07:12:59.003Z,74.58
2023-04-11T07:16:01.756Z,77.05
2023-04-11T07:19:04.747Z,76.04
2023-04-11T07:22:07.772Z,83.19
2023-04-11T07:25:11.010Z,88.05
2023-04-11T07:28:13.815Z,93.55
2023-04-11T07:31:19.940Z,96.62
2023-04-11T07:34:23.351Z,92.23
2023-04-11T07:37:27.020Z,92.32
2023-04-11T07:40:31.385Z,94.52
2023-04-11T07:43:34.521Z,99.89
2023-04-11T07:46:37.324Z,100.00
2023-04-11T07:49:41.167Z,100.00
2023-04-11T07:52:43.898Z,97.65
2023-04-11T07:55:47.297Z,96.40
2023-04-11T07:58:50.213Z,100.00
2023-04-11T08:02:01.328Z,98.78
2023-04-11T08:05:05.364Z,94.29
2023-04-11T08:08:08.163Z,97.75
2023-04-11T08:11:11.156Z,97.11
2023-04-11T08:14:13.762Z,89.67
2023-04-11T08:17:27.164Z,83.67
2023-04-11T08:20:31.356Z,91.60
2023-04-11T08:23:34.358Z,93.62
2023-04-11T08:26:37.031Z,95.00
2023-04-11T08:29:43.536Z,90.45
2023-04-11T08:32:46.602Z,92.74
2023-04-11T08:35:49.603Z,86.21
2023-04-11T08:38:55.302Z,85.17
2023-04-11T08:41:59.745Z,84.83
2023-04-11T08:45:05.420Z,85.35
2023-04-11T08:48:09.200Z,87.05
2023-04-11T08:51:14.678Z,83.99
2023-04-11T08:54:17.884Z,82.94
2023-04-11T08:57:31.438Z,81.83
2023-04-11T09:00:34.732Z,80.96
2023-04-11T09:03:51.914Z,82.23
2023-04-11T09:07:00.512Z,79.06
2023-04-11T09:10:20.527Z,73.66
2023-04-11T09:13:28.525Z,70.01
2023-04-11T09:16:32.238Z,69.32
2023-04-11T09:19:41.234Z,68.95
2023-04-11T09:22:44.637Z,64.68
2023-04-11T09:25:47.747Z,64.47
2023-04-11T09:28:53.929Z,65.49
2023-04-11T09:31:57.183Z,64.36
2023-04-11T09:35:12.159Z,62.85
2023-04-11T09:38:27.021Z,58.50
2023-04-11T09:41:34.569Z,62.45
2023-04-11T09:44:38.601Z,67.84
2023-04-11T09:47:43.998Z,65.90
2023-04-11T09:50:49.738Z,60.64
2023-04-11T09:53:52.767Z,60.70
2023-04-11T09:56:57.276Z,57.95
2023-04-11T10:00:14.163Z,65.93
2023-04-11T10:03:20.289Z,61.84
2023-04-11T10:06:34.869Z,61.93
2023-04-11T10:09:40.979Z,59.86
2023-04-11T10:12:43.746Z,61.13
2023-04-11T10:16:09.150Z,58.50
2023-04-11T10:19:19.185Z,61.58
2023-04-11T10:22:59.293Z,60.05
2023-04-11T10:26:02.453Z,60.67
2023-04-11T10:29:28.042Z,64.36
2023-04-11T10:32:31.059Z,59.93
2023-04-11T10:35:34.182Z,62.04
2023-04-11T10:38:36.928Z,56.90
2023-04-11T10:41:39.864Z,58.38
2023-04-11T10:44:42.559Z,56.62
2023-04-11T10:48:11.848Z,60.14
2023-04-11T10:51:24.655Z,54.26
2023-04-11T10:54:28.396Z,59.58
2023-04-11T10:58:03.961Z,58.48
2023-04-11T11:01:26.023Z,54.84
2023-04-11T11:04:40.449Z,50.26
2023-04-11T11:07:46.870Z,52.68
2023-04-11T11:10:50.398Z,51.69
2023-04-11T11:13:56.208Z,51.79
2023-04-11T11:16:59.989Z,52.64
2023-04-11T11:20:10.111Z,53.12
2023-04-11T11:23:16.123Z,54.91
2023-04-11T11:26:19.270Z,51.60
2023-04-11T11:29:34.106Z,50.51
2023-04-11T11:32:37.378Z,47.65
2023-04-11T11:35:40.001Z,48.12
2023-04-11T11:38:43.737Z,45.70
2023-04-11T11:41:50.404Z,43.56
2023-04-11T11:44:53.452Z,46.40
2023-04-11T11:47:56.354Z,44.93
2023-04-11T11:50:59.457Z,43.67
2023-04-11T11:54:08.731Z,44.58
2023-04-11T11:57:11.757Z,43.54
2023-04-11T12:00:16.179Z,45.34
2023-04-11T12:03:25.637Z,46.38
2023-04-11T12:06:35.110Z,44.10
2023-04-11T12:09:38.738Z,41.52
2023-04-11T12:12:43.298Z,44.03
2023-04-11T12:16:04.644Z,44.58
2023-04-11T12:19:08.884Z,46.65
2023-04-11T12:22:12.146Z,45.24
2023-04-11T12:25:15.643Z,44.52
2023-04-11T12:28:18.882Z,45.75
2023-04-11T12:31:21.901Z,44.50
2023-04-11T12:34:25.295Z,42.81
2023-04-11T12:37:28.079Z,42.08
2023-04-11T12:40:31.293Z,43.04
2023-04-11T12:43:34.064Z,43.01
2023-04-11T12:46:37.460Z,42.91
2023-04-11T12:49:40.500Z,43.67
2023-04-11T12:52:43.628Z,43.42
2023-04-11T12:55:46.410Z,44.05
2023-04-11T12:58:49.448Z,44.29
2023-04-11T13:01:52.637Z,44.14
2023-04-11T13:04:57.843Z,45.09
2023-04-11T13:08:01.563Z,44.23
2023-04-11T13:11:04.937Z,45.80
2023-04-11T13:14:07.720Z,43.98
2023-04-11T13:17:10.772Z,44.14
2023-04-11T13:20:14.472Z,44.52
2023-04-11T13:23:17.676Z,43.60
2023-04-11T13:26:20.298Z,45.25
2023-04-11T13:29:23.205Z,46.65
2023-04-11T13:32:26.241Z,45.32
2023-04-11T13:35:29.367Z,45.95
2023-04-11T13:38:32.949Z,45.87
2023-04-11T13:41:36.920Z,44.84
2023-04-11T13:44:39.683Z,44.49
2023-04-11T13:47:42.769Z,45.25
2023-04-11T13:50:46.060Z,44.98
2023-04-11T13:53:48.979Z,48.36
2023-04-11T13:56:51.954Z,46.60
2023-04-11T13:59:55.356Z,46.37
2023-04-11T14:02:58.518Z,48.13
2023-04-11T14:06:03.281Z,46.52
2023-04-11T14:09:06.438Z,47.90
2023-04-11T14:12:09.680Z,49.94
2023-04-11T14:15:12.395Z,50.48
2023-04-11T14:18:15.584Z,53.02
2023-04-11T14:21:18.268Z,50.94
2023-04-11T14:24:22.408Z,52.78
2023-04-11T14:27:25.434Z,53.32
2023-04-11T14:30:28.869Z,55.95
2023-04-11T14:33:31.966Z,59.09
2023-04-11T15:17:16.482Z,100.00
2023-04-11T15:20:20.119Z,100.00
2023-04-11T15:23:23.269Z,100.00
2023-04-11T15:26:26.419Z,100.00
2023-04-11T15:29:29.146Z,100.00
2023-04-11T15:32:32.576Z,100.00
2023-04-11T15:35:35.434Z,100.00
2023-04-11T15:38:38.934Z,100.00
2023-04-11T15:41:42.146Z,100.00
2023-04-11T15:44:45.665Z,100.00
2023-04-11T15:47:48.399Z,100.00
2023-04-11T15:50:51.946Z,100.00
2023-04-11T15:53:55.228Z,100.00
2023-04-11T15:56:58.565Z,100.00
2023-04-11T16:00:01.492Z,100.00
2023-04-11T16:03:12.701Z,100.00
2023-04-11T16:06:18.203Z,100.00
2023-04-11T16:09:20.875Z,100.00
2023-04-11T16:12:23.972Z,100.00
2023-04-11T16:15:26.651Z,100.00
2023-04-11T16:18:29.699Z,100.00
2023-04-11T16:21:32.411Z,100.00
2023-04-11T16:24:35.416Z,100.00
2023-04-11T16:27:38.178Z,100.00
2023-04-11T16:30:41.966Z,100.00
2023-04-11T16:33:44.656Z,100.00
2023-04-11T16:36:49.773Z,100.00
2023-04-11T16:39:52.638Z,100.00
2023-04-11T16:42:55.956Z,100.00
2023-04-11T16:45:59.046Z,100.00
2023-04-11T16:49:02.901Z,100.00
2023-04-11T16:52:06.143Z,100.00
2023-04-11T16:55:09.651Z,100.00
2023-04-11T16:58:12.686Z,100.00
2023-04-11T17:01:16.402Z,100.00
2023-04-11T17:04:19.702Z,100.00
2023-04-11T17:07:22.749Z,100.00
2023-04-11T17:10:25.639Z,100.00
2023-04-11T17:13:28.805Z,100.00
2023-04-11T17:16:31.657Z,100.00
2023-04-11T17:19:36.969Z,100.00
2023-04-11T17:22:41.588Z,100.00
2023-04-11T17:25:44.582Z,100.00
2023-04-11T17:28:47.258Z,100.00
2023-04-11T17:31:50.464Z,100.00
2023-04-11T17:34:53.129Z,100.00
2023-04-11T17:37:56.009Z,100.00
2023-04-11T17:41:06.759Z,100.00
2023-04-11T17:44:20.644Z,100.00
2023-04-11T17:47:23.341Z,100.00
2023-04-11T17:50:27.316Z,100.00
2023-04-11T17:53:30.059Z,100.00
2023-04-11T17:56:34.242Z,100.00
2023-04-11T17:59:36.888Z,100.00
2023-04-11T18:02:42.479Z,100.00
2023-04-11T18:05:47.433Z,100.00
2023-04-11T18:08:51.525Z,100.00
2023-04-11T18:11:55.218Z,100.00
2023-04-11T18:14:57.923Z,100.00
2023-04-11T18:18:03.987Z,100.00
2023-04-11T18:21:08.005Z,100.00
2023-04-11T18:24:11.431Z,100.00
2023-04-11T18:27:14.073Z,100.00
2023-04-11T18:30:17.430Z,100.00
2023-04-11T18:33:20.931Z,100.00
2023-04-11T18:36:24.933Z,100.00
2023-04-11T18:39:28.202Z,100.00
2023-04-11T18:42:31.255Z,100.00
2023-04-11T18:45:34.154Z,100.00
2023-04-11T18:48:37.683Z,100.00
2023-04-11T18:51:40.575Z,100.00
2023-04-11T18:54:44.838Z,100.00
2023-04-11T18:57:48.941Z,100.00
2023-04-11T19:00:52.952Z,100.00
2023-04-11T19:03:58.017Z,100.00
2023-04-11T19:07:02.054Z,100.00
2023-04-11T19:10:06.275Z,100.00
2023-04-11T19:13:09.389Z,100.00
2023-04-11T19:16:12.588Z,100.00
2023-04-11T19:19:15.827Z,100.00
2023-04-11T19:22:18.643Z,100.00
2023-04-11T19:25:22.026Z,100.00
2023-04-11T19:28:24.762Z,100.00
2023-04-11T19:31:28.744Z,100.00
2023-04-11T19:34:33.241Z,100.00
2023-04-11T20:03:23.630Z,100.00
2023-04-11T20:06:28.262Z,100.00
2023-04-11T20:09:31.115Z,100.00
2023-04-11T20:12:35.426Z,100.00
2023-04-11T20:15:38.469Z,100.00
2023-04-11T20:18:41.490Z,100.00
2023-04-11T20:21:44.188Z,100.00
2023-04-11T20:24:47.816Z,100.00
2023-04-11T20:27:50.530Z,100.00
2023-04-11T20:30:53.548Z,100.00
2023-04-11T20:33:57.155Z,100.00
2023-04-11T20:37:04.503Z,100.00
2023-04-11T20:40:09.735Z,100.00
2023-04-11T20:43:13.684Z,100.00
2023-04-11T20:46:17.985Z,100.00
2023-04-11T20:49:20.960Z,100.00
2023-04-11T20:52:23.572Z,100.00
2023-04-11T20:55:26.654Z,100.00
2023-04-11T20:58:29.300Z,100.00
2023-04-11T21:01:33.593Z,100.00
2023-04-11T21:04:36.673Z,100.00
2023-04-11T21:07:40.661Z,100.00
2023-04-11T21:10:43.417Z,100.00
2023-04-11T21:13:49.598Z,100.00
2023-04-11T21:16:52.338Z,100.00
2023-04-11T21:19:55.377Z,100.00
2023-04-11T21:22:58.921Z,100.00
2023-04-11T21:26:01.888Z,100.00
2023-04-11T21:29:04.917Z,100.00
2023-04-11T21:32:12.232Z,100.00
2023-04-11T21:35:15.414Z,100.00
2023-04-11T21:38:18.348Z,100.00
2023-04-11T21:41:21.063Z,100.00
2023-04-11T21:44:27.105Z,100.00
2023-04-11T21:47:29.712Z,100.00
2023-04-11T21:50:33.409Z,100.00
2023-04-11T21:53:36.147Z,100.00
2023-04-11T21:56:39.105Z,100.00
2023-04-11T21:59:41.754Z,100.00
2023-04-11T22:02:45.389Z,100.00
2023-04-11T22:05:50.461Z,100.00
2023-04-11T22:08:53.236Z,100.00
2023-04-11T22:11:56.224Z,100.00
2023-04-11T22:14:59.913Z,100.00
2023-04-11T22:18:03.519Z,100.00
2023-04-11T22:21:09.380Z,100.00
2023-04-11T22:24:12.388Z,100.00
2023-04-11T22:27:18.405Z,100.00
2023-04-11T22:30:23.284Z,100.00
2023-04-11T22:33:26.028Z,100.00
2023-04-11T22:36:35.438Z,100.00
2023-04-11T22:39:38.197Z,100.00
2023-04-11T22:42:41.722Z,100.00
2023-04-11T22:45:46.901Z,100.00
2023-04-11T22:48:49.861Z,100.00
2023-04-11T22:51:59.321Z,100.00
2023-04-11T22:55:04.781Z,100.00
2023-04-11T22:58:07.768Z,100.00
2023-04-11T23:01:15.640Z,100.00
2023-04-11T23:04:20.008Z,100.00
2023-04-11T23:07:25.247Z,100.00
2023-04-11T23:10:28.931Z,100.00
2023-04-11T23:13:32.247Z,100.00
2023-04-11T23:16:34.896Z,100.00
2023-04-11T23:19:38.165Z,100.00
2023-04-11T23:22:42.592Z,100.00
2023-04-11T23:25:45.808Z,100.00
2023-04-11T23:28:49.618Z,100.00
2023-04-11T23:31:52.619Z,100.00
2023-04-11T23:34:55.263Z,100.00
2023-04-11T23:37:59.991Z,100.00
2023-04-11T23:41:05.219Z,100.00
2023-04-11T23:44:08.246Z,100.00
2023-04-11T23:47:11.123Z,100.00
2023-04-11T23:50:14.189Z,100.00
2023-04-11T23:53:17.688Z,100.00
2023-04-11T23:56:21.442Z,100.00
2023-04-11T23:59:24.483Z,100.00
